createdAt,value
2019-02-04T00:00:13.945Z,78.27
2019-02-04T00:02:41.513Z,78.64
2019-02-04T00:05:08.697Z,79.46
2019-02-04T00:07:35.927Z,79.84
2019-02-04T00:10:04.124Z,80.11
2019-02-04T00:12:31.271Z,80.63
2019-02-04T00:14:58.575Z,81.10
2019-02-04T00:17:25.709Z,81.57
2019-02-04T00:19:53.507Z,82.19
2019-02-04T00:22:20.698Z,82.77
2019-02-04T00:24:47.840Z,82.85
2019-02-04T00:27:15.019Z,82.85
2019-02-04T00:29:42.444Z,83.12
2019-02-04T00:32:09.664Z,83.38
2019-02-04T00:34:36.830Z,83.56
2019-02-04T00:37:04.441Z,83.78
2019-02-04T00:39:31.575Z,84.11
2019-02-04T00:41:58.754Z,84.32
2019-02-04T00:44:25.934Z,84.43
2019-02-04T00:46:53.149Z,84.61
2019-02-04T00:49:20.296Z,84.82
2019-02-04T00:51:47.476Z,84.98
2019-02-04T00:54:14.926Z,85.12
2019-02-04T00:56:42.086Z,85.21
2019-02-04T00:59:09.357Z,85.38
2019-02-04T01:01:36.803Z,85.54
2019-02-04T01:04:04.518Z,85.75
2019-02-04T01:06:31.697Z,85.89
2019-02-04T01:08:58.867Z,85.95
2019-02-04T01:11:26.214Z,86.02
2019-02-04T01:13:53.390Z,86.17
2019-02-04T01:16:20.631Z,86.37
2019-02-04T01:18:47.780Z,86.59
2019-02-04T01:21:15.189Z,86.55
2019-02-04T01:23:42.524Z,86.33
2019-02-04T01:26:09.661Z,86.15
2019-02-04T01:28:37.174Z,86.05
2019-02-04T01:31:04.348Z,86.05
2019-02-04T01:33:31.501Z,86.22
2019-02-04T01:35:58.680Z,86.32
2019-02-04T01:38:25.835Z,86.33
2019-02-04T01:40:53.385Z,86.38
2019-02-04T01:43:20.576Z,86.50
2019-02-04T01:45:47.881Z,86.62
2019-02-04T01:48:14.942Z,86.73
2019-02-04T01:50:42.067Z,86.87
2019-02-04T01:53:09.213Z,87.08
2019-02-04T01:55:36.389Z,87.22
2019-02-04T01:58:03.589Z,87.38
2019-02-04T02:00:33.129Z,87.54
2019-02-04T02:03:00.240Z,87.60
2019-02-04T02:05:27.455Z,87.64
2019-02-04T02:07:54.955Z,87.67
2019-02-04T02:10:22.485Z,87.65
2019-02-04T02:12:49.976Z,87.74
2019-02-04T02:15:17.735Z,87.76
2019-02-04T02:17:45.306Z,87.81
2019-02-04T02:20:15.248Z,87.89
2019-02-04T02:22:42.498Z,88.00
2019-02-04T02:25:09.933Z,88.02
2019-02-04T02:27:37.115Z,88.12
2019-02-04T02:30:07.322Z,88.19
2019-02-04T02:32:34.790Z,87.99
2019-02-04T02:35:01.943Z,87.83
2019-02-04T02:37:29.075Z,87.77
2019-02-04T02:39:56.205Z,87.76
2019-02-04T02:42:23.385Z,87.78
2019-02-04T02:44:50.849Z,87.68
2019-02-04T02:47:17.998Z,87.68
2019-02-04T02:49:45.311Z,87.84
2019-02-04T02:52:13.089Z,88.00
2019-02-04T02:54:40.272Z,88.14
2019-02-04T02:57:07.458Z,88.25
2019-02-04T02:59:34.603Z,88.30
2019-02-04T03:02:01.785Z,88.34
2019-02-04T03:04:28.945Z,88.38
2019-02-04T03:06:56.112Z,88.43
2019-02-04T03:09:23.550Z,88.54
2019-02-04T03:11:50.881Z,88.55
2019-02-04T03:14:18.032Z,88.51
2019-02-04T03:16:45.077Z,88.41
2019-02-04T03:19:12.568Z,88.29
2019-02-04T03:21:39.739Z,88.29
2019-02-04T03:24:06.792Z,88.25
2019-02-04T03:26:33.953Z,88.34
2019-02-04T03:29:01.069Z,88.47
2019-02-04T03:31:28.240Z,88.56
2019-02-04T03:33:55.790Z,88.62
2019-02-04T03:36:23.212Z,88.64
2019-02-04T03:38:50.459Z,88.80
2019-02-04T03:41:17.644Z,88.92
2019-02-04T03:43:45.007Z,88.99
2019-02-04T03:46:12.162Z,88.84
2019-02-04T03:48:39.323Z,88.80
2019-02-04T03:51:06.824Z,88.72
2019-02-04T03:53:33.989Z,88.71
2019-02-04T03:56:01.048Z,88.66
2019-02-04T03:58:28.488Z,88.61
2019-02-04T04:00:55.684Z,88.65
2019-02-04T04:03:22.947Z,88.65
2019-02-04T04:05:50.117Z,88.61
2019-02-04T04:08:17.256Z,88.59
2019-02-04T04:10:44.691Z,88.60
2019-02-04T04:13:12.090Z,88.54
2019-02-04T04:15:39.714Z,88.61
2019-02-04T04:18:15.435Z,88.64
2019-02-04T04:20:35.739Z,88.68
2019-02-04T04:23:02.890Z,88.72
2019-02-04T04:25:31.662Z,88.75
2019-02-04T04:27:59.119Z,88.73
2019-02-04T04:30:26.212Z,88.73
2019-02-04T04:32:53.786Z,88.77
2019-02-04T04:35:20.956Z,88.71
2019-02-04T04:37:48.191Z,88.72
2019-02-04T04:40:15.688Z,88.80
2019-02-04T04:42:42.883Z,88.78
2019-02-04T04:45:11.963Z,88.83
2019-02-04T04:47:39.019Z,88.90
2019-02-04T04:50:07.162Z,89.02
2019-02-04T04:52:34.329Z,89.09
2019-02-04T04:55:01.634Z,89.08
2019-02-04T04:57:28.829Z,89.10
2019-02-04T04:59:55.992Z,89.23
2019-02-04T05:02:23.148Z,89.30
2019-02-04T05:04:50.291Z,89.30
2019-02-04T05:07:17.744Z,89.23
2019-02-04T05:09:44.922Z,89.21
2019-02-04T05:12:12.075Z,89.31
2019-02-04T05:14:39.226Z,89.42
2019-02-04T05:17:06.405Z,89.46
2019-02-04T05:19:33.553Z,89.50
2019-02-04T05:22:00.736Z,89.54
2019-02-04T05:24:28.206Z,89.58
2019-02-04T05:26:55.378Z,89.61
2019-02-04T05:29:22.760Z,89.71
2019-02-04T05:31:49.965Z,89.76
2019-02-04T05:34:17.094Z,89.87
2019-02-04T05:36:44.536Z,89.94
2019-02-04T05:39:11.732Z,89.98
2019-02-04T05:41:39.098Z,89.96
2019-02-04T05:44:06.261Z,89.98
2019-02-04T05:46:33.468Z,90.03
2019-02-04T05:49:00.612Z,90.05
2019-02-04T05:51:28.072Z,90.04
2019-02-04T05:53:55.262Z,90.03
2019-02-04T05:56:22.702Z,90.11
2019-02-04T05:58:50.091Z,90.17
2019-02-04T06:01:17.251Z,90.25
2019-02-04T06:03:44.396Z,90.24
2019-02-04T06:06:11.560Z,90.26
2019-02-04T06:08:38.731Z,90.29
2019-02-04T06:11:06.201Z,90.29
2019-02-04T06:13:33.343Z,90.30
2019-02-04T06:16:00.884Z,90.24
2019-02-04T06:18:28.035Z,90.21
2019-02-04T06:20:55.104Z,90.17
2019-02-04T06:23:22.582Z,90.13
2019-02-04T06:25:49.653Z,90.12
2019-02-04T06:28:16.781Z,90.08
2019-02-04T06:30:43.989Z,90.04
2019-02-04T06:33:11.651Z,90.14
2019-02-04T06:35:38.728Z,90.24
2019-02-04T06:38:05.910Z,90.29
2019-02-04T06:40:33.122Z,90.20
2019-02-04T06:43:00.253Z,90.12
2019-02-04T06:45:27.450Z,90.05
2019-02-04T06:47:54.491Z,90.05
2019-02-04T06:50:21.939Z,90.11
2019-02-04T06:52:49.153Z,90.20
2019-02-04T06:55:22.062Z,90.22
2019-02-04T06:57:49.233Z,90.27
2019-02-04T07:00:16.609Z,90.30
2019-02-04T07:02:43.949Z,90.35
2019-02-04T07:05:11.829Z,90.41
2019-02-04T07:07:38.879Z,90.49
2019-02-04T07:10:08.339Z,90.56
2019-02-04T07:12:35.400Z,90.67
2019-02-04T07:15:03.006Z,90.70
2019-02-04T07:17:30.238Z,90.71
2019-02-04T07:19:57.683Z,90.72
2019-02-04T07:22:24.875Z,90.70
2019-02-04T07:24:52.239Z,90.71
2019-02-04T07:27:22.347Z,90.73
2019-02-04T07:29:48.463Z,90.78
2019-02-04T07:32:15.880Z,90.77
2019-02-04T07:34:43.040Z,90.77
2019-02-04T07:37:10.303Z,90.69
2019-02-04T07:39:37.480Z,90.58
2019-02-04T07:42:04.938Z,90.37
2019-02-04T07:44:32.147Z,90.06
2019-02-04T07:46:59.293Z,89.79
2019-02-04T07:49:35.003Z,89.40
2019-02-04T07:51:55.519Z,88.81
2019-02-04T07:54:22.623Z,88.04
2019-02-04T07:56:49.815Z,87.27
2019-02-04T07:59:17.267Z,86.74
2019-02-04T08:01:44.417Z,87.19
2019-02-04T08:04:11.600Z,88.10
2019-02-04T08:06:38.813Z,86.94
2019-02-04T08:09:07.622Z,82.40
2019-02-04T08:11:35.041Z,75.12
2019-02-04T08:14:02.308Z,66.79
2019-02-04T08:16:29.693Z,60.22
2019-02-04T08:18:56.968Z,52.62
2019-02-04T08:21:24.195Z,49.12
2019-02-04T08:23:51.369Z,46.35
2019-02-04T08:26:18.563Z,45.75
2019-02-04T08:28:45.756Z,44.71
2019-02-04T08:31:12.805Z,44.07
2019-02-04T08:33:40.261Z,44.23
2019-02-04T08:36:07.615Z,46.19
2019-02-04T08:38:35.080Z,48.46
2019-02-04T08:41:02.236Z,51.24
2019-02-04T08:43:29.478Z,51.96
2019-02-04T08:45:56.638Z,53.05
2019-02-04T08:48:23.783Z,54.21
2019-02-04T08:50:50.912Z,56.19
2019-02-04T08:53:18.095Z,57.75
2019-02-04T08:55:45.270Z,58.50
2019-02-04T08:58:12.838Z,58.70
2019-02-04T09:00:40.052Z,59.14
2019-02-04T09:03:07.120Z,59.65
2019-02-04T09:05:34.229Z,60.36
2019-02-04T09:08:01.420Z,60.98
2019-02-04T09:10:30.452Z,61.25
2019-02-04T09:12:58.115Z,60.65
2019-02-04T09:15:25.615Z,60.63
2019-02-04T09:17:52.968Z,60.46
2019-02-04T09:20:20.397Z,59.66
2019-02-04T09:22:47.570Z,59.59
2019-02-04T09:25:15.222Z,59.73
2019-02-04T09:27:42.445Z,60.85
2019-02-04T09:30:13.304Z,60.34
2019-02-04T09:32:40.510Z,60.59
2019-02-04T09:35:09.378Z,60.83
2019-02-04T09:37:36.636Z,60.92
2019-02-04T09:40:04.288Z,60.73
2019-02-04T09:42:31.907Z,60.53
2019-02-04T09:44:59.410Z,60.61
2019-02-04T09:47:26.704Z,59.87
2019-02-04T09:49:53.898Z,58.63
2019-02-04T09:52:21.208Z,59.26
2019-02-04T09:54:48.743Z,60.05
2019-02-04T09:57:15.988Z,60.74
2019-02-04T09:59:43.046Z,60.42
2019-02-04T10:02:10.318Z,60.52
2019-02-04T10:04:37.797Z,60.92
2019-02-04T10:07:05.289Z,60.98
2019-02-04T10:09:32.692Z,61.14
2019-02-04T10:11:59.907Z,61.51
2019-02-04T10:14:27.106Z,62.07
2019-02-04T10:16:54.369Z,62.84
2019-02-04T10:19:21.660Z,62.82
2019-02-04T10:21:48.784Z,62.18
2019-02-04T10:24:16.084Z,62.80
2019-02-04T10:26:43.272Z,62.51
2019-02-04T10:29:10.430Z,62.77
2019-02-04T10:31:38.218Z,62.55
2019-02-04T10:34:05.419Z,61.94
2019-02-04T10:36:32.492Z,62.24
2019-02-04T10:38:59.675Z,61.92
2019-02-04T10:41:26.772Z,62.25
2019-02-04T10:43:54.274Z,61.75
2019-02-04T10:46:21.415Z,61.88
2019-02-04T10:48:48.930Z,62.27
2019-02-04T10:51:16.122Z,61.93
2019-02-04T10:53:43.268Z,61.84
2019-02-04T10:56:10.913Z,61.19
2019-02-04T10:58:38.065Z,59.54
2019-02-04T11:01:05.613Z,59.84
2019-02-04T11:03:32.795Z,59.00
2019-02-04T11:05:59.884Z,58.68
2019-02-04T11:08:27.243Z,58.47
2019-02-04T11:10:54.546Z,58.94
2019-02-04T11:13:21.957Z,57.73
2019-02-04T11:15:49.949Z,58.07
2019-02-04T11:18:17.195Z,57.54
2019-02-04T11:20:57.231Z,56.86
2019-02-04T11:23:14.149Z,56.87
2019-02-04T11:25:41.850Z,56.94
2019-02-04T11:28:10.416Z,55.65
2019-02-04T11:30:40.460Z,55.89
2019-02-04T11:33:08.202Z,54.66
2019-02-04T11:35:35.387Z,54.73
2019-02-04T11:38:02.678Z,54.03
2019-02-04T11:40:32.230Z,54.35
2019-02-04T11:42:59.356Z,54.16
2019-02-04T11:45:27.283Z,53.57
2019-02-04T11:47:54.434Z,52.69
2019-02-04T11:50:21.853Z,53.07
2019-02-04T11:52:49.038Z,53.76
2019-02-04T11:55:16.342Z,53.03
2019-02-04T11:57:43.633Z,51.93
2019-02-04T12:00:14.532Z,51.65
2019-02-04T12:02:42.464Z,52.36
2019-02-04T12:05:11.384Z,51.27
2019-02-04T12:07:38.624Z,52.09
2019-02-04T12:10:08.004Z,51.99
2019-02-04T12:12:35.262Z,51.87
2019-02-04T12:15:02.681Z,51.99
2019-02-04T12:17:29.953Z,51.29
2019-02-04T12:19:57.139Z,52.02
2019-02-04T12:22:24.346Z,52.65
2019-02-04T12:24:51.532Z,53.37
2019-02-04T12:27:18.738Z,52.34
2019-02-04T12:29:45.886Z,52.55
2019-02-04T12:32:13.120Z,53.18
2019-02-04T12:34:40.278Z,52.63
2019-02-04T12:37:07.727Z,51.95
2019-02-04T12:39:35.277Z,51.00
2019-02-04T12:42:02.479Z,51.75
2019-02-04T12:44:29.644Z,51.60
2019-02-04T12:46:56.784Z,52.21
2019-02-04T12:49:23.933Z,52.47
2019-02-04T12:51:51.327Z,52.60
2019-02-04T12:54:18.865Z,51.49
2019-02-04T12:56:46.135Z,51.86
2019-02-04T12:59:13.587Z,51.54
2019-02-04T13:01:41.095Z,51.91
2019-02-04T13:04:08.273Z,52.01
2019-02-04T13:06:35.487Z,50.45
2019-02-04T13:09:05.721Z,51.49
2019-02-04T13:11:33.881Z,52.05
2019-02-04T13:14:01.069Z,52.42
2019-02-04T13:16:28.239Z,52.81
2019-02-04T13:18:55.419Z,52.57
2019-02-04T13:21:22.864Z,51.47
2019-02-04T13:23:50.065Z,51.95
2019-02-04T13:26:17.245Z,50.04
2019-02-04T13:28:44.622Z,49.61
2019-02-04T13:31:12.903Z,48.85
2019-02-04T13:33:40.249Z,48.03
2019-02-04T13:36:07.607Z,46.93
2019-02-04T13:38:34.799Z,48.07
2019-02-04T13:41:09.572Z,47.45
2019-02-04T13:43:31.667Z,47.77
2019-02-04T13:45:59.261Z,47.82
2019-02-04T13:48:26.425Z,47.97
2019-02-04T13:50:53.523Z,45.52
2019-02-04T13:53:20.921Z,44.98
2019-02-04T13:55:48.638Z,45.02
2019-02-04T13:58:15.853Z,45.28
2019-02-04T14:00:43.107Z,44.56
2019-02-04T14:03:10.162Z,43.93
2019-02-04T14:05:37.551Z,43.89
2019-02-04T14:08:05.673Z,43.78
2019-02-04T14:10:34.808Z,44.24
2019-02-04T14:13:02.305Z,44.01
2019-02-04T14:15:29.803Z,43.99
2019-02-04T14:17:57.204Z,43.74
2019-02-04T14:20:24.367Z,44.05
2019-02-04T14:22:53.440Z,45.86
2019-02-04T14:25:20.875Z,45.83
2019-02-04T14:27:48.053Z,47.47
2019-02-04T14:30:21.958Z,47.13
2019-02-04T14:32:49.487Z,45.49
2019-02-04T14:35:16.710Z,46.01
2019-02-04T14:37:45.138Z,47.15
2019-02-04T14:40:18.948Z,46.55
2019-02-04T14:42:42.042Z,46.47
2019-02-04T14:45:16.799Z,47.58
2019-02-04T14:48:09.957Z,47.26
2019-02-04T14:51:02.421Z,47.75
2019-02-04T14:53:52.988Z,48.62
2019-02-04T14:57:14.089Z,46.20
2019-02-04T14:59:55.382Z,45.88
2019-02-04T15:02:58.101Z,46.90
2019-02-04T15:06:06.308Z,48.18
2019-02-04T15:09:04.073Z,48.38
2019-02-04T15:12:13.636Z,48.80
2019-02-04T15:15:09.698Z,49.11
2019-02-04T15:17:50.029Z,50.20
2019-02-04T15:20:57.147Z,50.03
2019-02-04T15:23:36.586Z,51.76
2019-02-04T15:26:52.578Z,52.47
2019-02-04T15:29:53.404Z,53.25
2019-02-04T15:32:45.082Z,53.01
2019-02-04T15:35:52.790Z,53.87
2019-02-04T15:38:59.372Z,53.58
2019-02-04T15:41:55.257Z,54.07
2019-02-04T15:44:57.489Z,53.33
2019-02-04T15:47:33.657Z,53.03
2019-02-04T15:51:04.082Z,52.14
2019-02-04T15:53:31.447Z,52.18
2019-02-04T15:55:59.532Z,52.63
2019-02-04T15:58:27.027Z,53.26
2019-02-04T16:00:54.484Z,53.95
2019-02-04T16:03:21.773Z,54.82
2019-02-04T16:05:48.884Z,53.74
2019-02-04T16:08:16.149Z,54.22
2019-02-04T16:10:43.323Z,54.18
2019-02-04T16:13:10.540Z,53.62
2019-02-04T16:15:37.957Z,53.82
2019-02-04T16:18:05.228Z,53.63
2019-02-04T16:20:32.335Z,52.77
2019-02-04T16:22:59.542Z,52.12
2019-02-04T16:25:27.071Z,51.88
2019-02-04T16:27:54.421Z,53.11
2019-02-04T16:30:21.631Z,52.46
2019-02-04T16:32:48.705Z,51.29
2019-02-04T16:35:16.901Z,52.01
2019-02-04T16:37:44.384Z,52.92
2019-02-04T16:40:13.753Z,53.16
2019-02-04T16:42:40.976Z,53.66
2019-02-04T16:45:08.503Z,54.08
2019-02-04T16:47:35.809Z,54.33
2019-02-04T16:50:04.327Z,54.62
2019-02-04T16:52:31.601Z,53.77
2019-02-04T16:54:59.089Z,53.10
2019-02-04T16:57:26.301Z,52.78
2019-02-04T16:59:53.463Z,52.92
2019-02-04T17:02:20.593Z,52.82
2019-02-04T17:04:47.869Z,53.29
2019-02-04T17:07:15.344Z,52.97
2019-02-04T17:09:42.749Z,53.47
2019-02-04T17:12:10.047Z,53.84
2019-02-04T17:14:37.192Z,54.63
2019-02-04T17:17:04.730Z,55.12
2019-02-04T17:19:32.203Z,55.05
2019-02-04T17:21:59.469Z,55.85
2019-02-04T17:24:26.625Z,54.28
2019-02-04T17:26:54.033Z,53.50
2019-02-04T17:29:21.198Z,54.13
2019-02-04T17:31:48.401Z,54.49
2019-02-04T17:34:15.683Z,54.56
2019-02-04T17:36:42.894Z,53.60
2019-02-04T17:39:10.176Z,53.46
2019-02-04T17:41:37.848Z,54.11
2019-02-04T17:44:05.835Z,54.83
2019-02-04T17:46:33.096Z,55.61
2019-02-04T17:49:00.305Z,55.99
2019-02-04T17:51:27.594Z,56.37
2019-02-04T17:53:55.054Z,56.83
2019-02-04T17:56:22.265Z,56.92
2019-02-04T17:58:49.505Z,57.50
2019-02-04T18:01:17.201Z,57.60
2019-02-04T18:03:44.399Z,57.70
2019-02-04T18:06:11.611Z,56.45
2019-02-04T18:08:39.092Z,56.47
2019-02-04T18:11:06.334Z,56.43
2019-02-04T18:13:34.066Z,56.83
2019-02-04T18:16:01.272Z,56.75
2019-02-04T18:18:28.797Z,57.06
2019-02-04T18:20:55.902Z,57.61
2019-02-04T18:23:23.111Z,58.10
2019-02-04T18:25:51.064Z,58.47
2019-02-04T18:28:18.247Z,58.49
2019-02-04T18:30:45.324Z,58.80
2019-02-04T18:33:12.513Z,59.03
2019-02-04T18:35:39.866Z,59.12
2019-02-04T18:38:07.093Z,59.23
2019-02-04T18:40:34.339Z,59.53
2019-02-04T18:43:01.999Z,59.94
2019-02-04T18:45:30.255Z,60.02
2019-02-04T18:47:59.934Z,60.04
2019-02-04T18:50:28.263Z,60.67
2019-02-04T18:52:55.462Z,60.35
2019-02-04T18:55:25.298Z,59.80
2019-02-04T18:57:52.494Z,60.16
2019-02-04T19:00:21.679Z,60.15
2019-02-04T19:02:48.788Z,60.85
2019-02-04T19:05:16.514Z,61.32
2019-02-04T19:07:43.604Z,61.98
2019-02-04T19:10:12.272Z,62.46
2019-02-04T19:12:39.606Z,62.69
2019-02-04T19:15:10.445Z,63.01
2019-02-04T19:17:37.785Z,63.26
2019-02-04T19:20:06.837Z,63.49
2019-02-04T19:22:34.371Z,63.73
2019-02-04T19:25:01.872Z,64.34
2019-02-04T19:27:29.186Z,63.85
2019-02-04T19:29:56.447Z,62.97
2019-02-04T19:32:23.674Z,62.47
2019-02-04T19:34:50.827Z,62.39
2019-02-04T19:37:18.028Z,62.88
2019-02-04T19:39:45.522Z,63.09
2019-02-04T19:42:12.704Z,63.32
2019-02-04T19:44:39.968Z,63.50
2019-02-04T19:47:07.160Z,63.55
2019-02-04T19:49:34.229Z,63.57
2019-02-04T19:52:01.439Z,63.78
2019-02-04T19:54:28.812Z,63.89
2019-02-04T19:56:55.970Z,64.32
2019-02-04T19:59:23.220Z,63.93
2019-02-04T20:01:50.500Z,63.47
2019-02-04T20:04:17.687Z,63.29
2019-02-04T20:06:44.906Z,62.92
2019-02-04T20:09:12.291Z,62.77
2019-02-04T20:11:39.770Z,62.48
2019-02-04T20:14:07.796Z,62.72
2019-02-04T20:16:35.330Z,61.96
2019-02-04T20:19:02.543Z,61.97
2019-02-04T20:21:29.762Z,61.60
2019-02-04T20:23:56.890Z,61.74
2019-02-04T20:26:24.087Z,61.46
2019-02-04T20:28:51.304Z,61.04
2019-02-04T20:31:18.541Z,59.92
2019-02-04T20:33:47.663Z,59.50
2019-02-04T20:36:14.888Z,59.38
2019-02-04T20:38:42.511Z,59.00
2019-02-04T20:41:09.694Z,58.80
2019-02-04T20:43:36.873Z,59.25
2019-02-04T20:46:04.288Z,59.97
2019-02-04T20:48:31.516Z,60.00
2019-02-04T20:51:00.257Z,60.31
2019-02-04T20:53:27.467Z,60.76
2019-02-04T20:55:54.727Z,60.73
2019-02-04T20:58:21.944Z,60.59
2019-02-04T21:00:49.175Z,60.08
2019-02-04T21:03:16.292Z,60.06
2019-02-04T21:05:43.389Z,59.50
2019-02-04T21:08:10.927Z,58.71
2019-02-04T21:10:38.299Z,58.95
2019-02-04T21:13:05.636Z,59.45
2019-02-04T21:15:32.945Z,60.16
2019-02-04T21:18:00.033Z,60.35
2019-02-04T21:20:27.262Z,60.20
2019-02-04T21:22:54.584Z,59.97
2019-02-04T21:25:21.764Z,60.43
2019-02-04T21:27:49.460Z,60.67
2019-02-04T21:30:24.598Z,60.79
2019-02-04T21:32:52.065Z,61.19
2019-02-04T21:35:19.345Z,61.12
2019-02-04T21:37:46.596Z,59.92
2019-02-04T21:40:14.020Z,59.76
2019-02-04T21:42:41.501Z,58.82
2019-02-04T21:45:10.404Z,59.04
2019-02-04T21:47:37.544Z,58.88
2019-02-04T21:50:08.154Z,58.90
2019-02-04T21:52:35.364Z,59.25
2019-02-04T21:55:08.561Z,58.79
2019-02-04T21:57:32.373Z,58.13
2019-02-04T21:59:59.828Z,58.65
2019-02-04T22:02:27.348Z,58.38
2019-02-04T22:04:54.438Z,57.61
2019-02-04T22:07:21.648Z,58.39
2019-02-04T22:09:48.910Z,58.80
2019-02-04T22:12:16.416Z,57.97
2019-02-04T22:14:43.608Z,57.99
2019-02-04T22:17:11.182Z,58.33
2019-02-04T22:19:38.420Z,58.67
2019-02-04T22:22:05.917Z,58.31
2019-02-04T22:24:33.084Z,57.82
2019-02-04T22:27:00.269Z,58.68
2019-02-04T22:29:27.452Z,58.46
2019-02-04T22:31:54.934Z,58.12
2019-02-04T22:34:22.289Z,58.09
2019-02-04T22:36:49.843Z,58.30
2019-02-04T22:39:17.005Z,58.90
2019-02-04T22:41:44.105Z,58.60
2019-02-04T22:44:11.288Z,59.07
2019-02-04T22:46:38.429Z,59.59
2019-02-04T22:49:05.668Z,59.89
2019-02-04T22:51:32.994Z,60.38
2019-02-04T22:54:00.267Z,60.79
2019-02-04T22:56:27.453Z,59.09
2019-02-04T22:58:54.671Z,58.31
2019-02-04T23:01:37.141Z,58.01
2019-02-04T23:04:05.205Z,58.41
2019-02-04T23:06:32.401Z,59.14
2019-02-04T23:08:59.961Z,59.72
2019-02-04T23:11:27.168Z,60.39
2019-02-04T23:13:54.357Z,61.05
2019-02-04T23:16:21.557Z,60.76
2019-02-04T23:18:48.757Z,61.24
2019-02-04T23:21:15.953Z,60.48
2019-02-04T23:23:43.001Z,60.28
2019-02-04T23:26:10.525Z,60.64
2019-02-04T23:28:37.823Z,61.00
2019-02-04T23:31:05.001Z,60.35
2019-02-04T23:33:34.208Z,59.27
2019-02-04T23:36:01.118Z,58.99
2019-02-04T23:38:28.584Z,58.86
2019-02-04T23:40:55.845Z,58.68
2019-02-04T23:43:23.300Z,58.70
2019-02-04T23:45:50.510Z,59.12
2019-02-04T23:48:18.051Z,59.56
2019-02-04T23:50:45.268Z,59.94
2019-02-04T23:53:12.440Z,59.85
2019-02-04T23:55:39.945Z,60.27
2019-02-04T23:58:07.130Z,59.63
